Aeroporto :
LOGIN :

Iscrizione | Disclaimer

   EN    FR    IT 

 










Sommario :    VFR   VFR Marginale   IFR   IFR Intensivo   IFR Molto Intensivo
Visibilità : 
Base nubi : 
>= 8 km
>= 3000ft
5 / 8 km
1000 / 3000 ft
1500m / 5 km
500 / 1000 ft
800 / 1500m
200 / 500 ft
< 800m
< 200 ft
Simboli :   Temporali  Nebbia  Neve Forte  Precipitazioni Forti  Vento > 20 kt
SIGMETs :   Varie  Temporali  Ghiacco  Turbolenza  Onda orograficha  Ceneri Vulcaniche






- Altitudine del aeroporto : 265 ft


ETSH - Holzdorf AB

ULTIMO METAR :
  • 190420Z 25003KT 9999 BKN012 BKN045 02/00 Q1028 GRN

METARs OBSOLETI :
  • 190338Z 26004KT 9999 BKN013 BKN040 02/00 Q1028 GRN
  • 190320Z 27005KT 9999 SCT016 BKN045 02/01 Q1028 BLU
  • 190300Z 27006KT 9999 BKN016 BKN040 03/01 Q1028 WHT
  • 190220Z 28005KT 9999 SCT025 BKN035 02/00 Q1027 BLU

Previsioni scadute.



MetMap, La meteo Aeronautica in un colpo d'occhio ! - Copyright ORBIFLY Dicembre 2007 - Disclaimer

ORBIFLY MET'MAP TEAM :

Programmazione e sviluppo : Alexandra Zaïnal
Concezione : Baudouin d'Aumeries
Aiuto per la programmazione : Marc-Olivier Méhu
Supporto tecnico e logistico : Manuel Goepfert
Aiuto per la traduzione : Arnaldo La Scala

Contatto : metmap@orbifly.com




FONTI E CREDITI :

   NOAA